Time;durP1;ratioP1;P1;durP2;ratioP2;P2;SDS_P1;SDS_P2;PMS_P1;PMS_P2;Temp;Humidity;BMP_temperature;BMP_pressure;BME280_temperature;BME280_humidity;BME280_pressure;Samples;Min_cycle;Max_cycle;Signal;HPM_P1;HPM_P2
2023/07/24 00:00:20;;;;;;;4.85;3.80;;;;;;;15.11;73.38;99128.38;5075018;28;20029;-56
2023/07/24 00:02:46;;;;;;;5.47;3.47;;;;;;;15.01;73.69;99125.84;5075241;28;20033;-59
2023/07/24 00:05:12;;;;;;;4.28;3.63;;;;;;;14.96;74.21;99131.78;5074948;28;20161;-59
2023/07/24 00:07:37;;;;;;;5.88;3.72;;;;;;;14.86;74.57;99125.69;5072030;28;20039;-57
2023/07/24 00:10:04;;;;;;;5.15;3.35;;;;;;;14.78;74.72;99135.47;5074659;28;20460;-57
2023/07/24 00:12:31;;;;;;;6.85;3.38;;;;;;;14.76;74.84;99137.50;5073626;28;20033;-57
2023/07/24 00:14:57;;;;;;;6.53;3.20;;;;;;;14.71;75.03;99126.38;5074680;28;20028;-58
2023/07/24 00:17:22;;;;;;;6.07;3.30;;;;;;;14.67;75.21;99138.47;5074041;28;20040;-57
2023/07/24 00:19:48;;;;;;;3.92;3.30;;;;;;;14.62;75.17;99138.97;5074518;28;20034;-56
2023/07/24 00:22:13;;;;;;;4.70;3.25;;;;;;;14.50;75.05;99127.69;5074426;28;20047;-57
2023/07/24 00:24:39;;;;;;;6.60;3.20;;;;;;;14.53;75.84;99131.06;5074522;28;20107;-62
2023/07/24 00:27:04;;;;;;;5.18;3.42;;;;;;;14.45;75.79;99129.19;5074770;28;20032;-56
2023/07/24 00:29:30;;;;;;;4.18;3.17;;;;;;;14.40;75.67;99121.59;5073847;28;20044;-53
2023/07/24 00:31:55;;;;;;;3.90;3.20;;;;;;;14.43;75.90;99126.66;5072824;28;20029;-54
2023/07/24 00:34:21;;;;;;;3.70;3.17;;;;;;;14.24;75.65;99095.50;5073737;28;20024;-56
2023/07/24 00:36:46;;;;;;;6.25;3.33;;;;;;;14.38;75.80;99126.31;5073281;28;20028;-58
2023/07/24 00:39:14;;;;;;;3.65;3.30;;;;;;;14.36;75.92;99125.63;5073445;28;20029;-57
2023/07/24 00:41:40;;;;;;;3.75;3.30;;;;;;;14.27;75.83;99115.88;5073277;28;20055;-63
2023/07/24 00:44:06;;;;;;;5.38;3.45;;;;;;;14.26;75.95;99119.56;5073541;28;20337;-57
2023/07/24 00:46:32;;;;;;;7.22;3.15;;;;;;;14.25;76.25;99117.88;5073688;28;20456;-56
2023/07/24 00:48:59;;;;;;;3.20;2.90;;;;;;;14.18;76.59;99118.53;5073200;28;20038;-56
2023/07/24 00:51:27;;;;;;;4.25;3.38;;;;;;;14.20;76.25;99126.44;5073420;28;20036;-57
2023/07/24 00:53:55;;;;;;;5.13;3.22;;;;;;;14.14;76.43;99133.31;5078614;28;20071;-56
2023/07/24 00:56:22;;;;;;;4.95;3.50;;;;;;;13.88;76.48;99088.50;5073451;28;20090;-55
2023/07/24 00:58:48;;;;;;;5.53;3.30;;;;;;;14.00;76.79;99125.91;5072363;28;20024;-58
2023/07/24 01:01:15;;;;;;;6.45;3.42;;;;;;;14.01;76.96;99136.47;5073425;28;20457;-56
2023/07/24 01:03:40;;;;;;;4.38;3.63;;;;;;;14.00;77.00;99128.59;5073244;28;20056;-54
2023/07/24 01:06:06;;;;;;;4.25;3.40;;;;;;;13.97;77.02;99132.44;5073208;28;20495;-58
2023/07/24 01:08:31;;;;;;;4.28;3.47;;;;;;;13.90;76.94;99120.66;5073360;28;20097;-55
2023/07/24 01:11:02;;;;;;;5.00;3.58;;;;;;;13.91;77.34;99133.09;5073194;28;20060;-55
2023/07/24 01:13:35;;;;;;;7.80;3.80;;;;;;;13.97;77.25;99136.97;5073269;28;20043;-56
2023/07/24 01:16:09;;;;;;;4.28;3.65;;;;;;;13.93;77.19;99128.41;5073600;28;20044;-57
2023/07/24 01:18:37;;;;;;;3.85;3.53;;;;;;;13.93;77.31;99134.59;5072904;28;20028;-55
2023/07/24 01:21:05;;;;;;;4.68;3.13;;;;;;;13.90;77.09;99132.25;5072496;28;20039;-59
2023/07/24 01:23:33;;;;;;;4.97;3.25;;;;;;;13.90;77.12;99126.84;5072846;28;20032;-55
2023/07/24 01:26:02;;;;;;;4.45;3.45;;;;;;;13.90;77.17;99128.72;5072914;28;20052;-54
2023/07/24 01:28:28;;;;;;;4.00;3.60;;;;;;;13.72;77.16;99091.13;5072978;28;20053;-57
2023/07/24 01:30:54;;;;;;;4.35;3.38;;;;;;;13.86;77.07;99119.25;5073095;28;20489;-53
2023/07/24 01:33:21;;;;;;;3.63;3.28;;;;;;;13.85;76.98;99118.44;5072402;28;20040;-54
2023/07/24 01:35:56;;;;;;;4.53;3.45;;;;;;;13.87;77.01;99116.44;5072050;28;20035;-55
2023/07/24 01:38:25;;;;;;;6.78;3.38;;;;;;;13.67;76.96;99091.66;5072479;28;20036;-58
2023/07/24 01:40:53;;;;;;;4.03;3.20;;;;;;;13.84;77.11;99118.59;5072925;28;20103;-57
2023/07/24 01:43:18;;;;;;;6.43;3.55;;;;;;;13.82;77.01;99123.28;5072126;28;20416;-59
2023/07/24 01:45:44;;;;;;;3.70;3.38;;;;;;;13.63;77.12;99092.97;5072672;28;20029;-62
2023/07/24 01:48:09;;;;;;;5.18;3.50;;;;;;;13.86;77.09;99119.25;5073199;28;20415;-55
2023/07/24 01:50:35;;;;;;;4.45;3.28;;;;;;;13.90;77.00;99121.47;5073043;28;20028;-57
2023/07/24 01:53:00;;;;;;;5.60;3.47;;;;;;;13.87;76.64;99108.34;5072953;28;20028;-59
2023/07/24 01:55:26;;;;;;;3.72;3.05;;;;;;;13.94;76.44;99113.94;5073048;28;20067;-52
2023/07/24 01:57:51;;;;;;;3.83;3.22;;;;;;;13.79;76.34;99086.81;5072972;28;20028;-57
2023/07/24 02:00:17;;;;;;;3.50;3.13;;;;;;;13.97;76.60;99099.28;5073132;28;20021;-54
2023/07/24 02:02:42;;;;;;;5.60;3.30;;;;;;;14.05;76.14;99107.41;5073158;28;20032;-55
2023/07/24 02:05:08;;;;;;;3.67;3.17;;;;;;;14.14;75.82;99122.56;5072692;28;20037;-53
2023/07/24 02:07:34;;;;;;;4.93;2.97;;;;;;;14.20;75.56;99110.28;5072793;28;20032;-57
2023/07/24 02:10:00;;;;;;;3.80;2.72;;;;;;;14.32;75.21;99118.91;5072662;28;20049;-57
2023/07/24 02:12:25;;;;;;;3.33;2.95;;;;;;;14.47;74.61;99129.88;5072460;28;20449;-56
2023/07/24 02:14:51;;;;;;;3.78;3.20;;;;;;;14.60;73.91;99124.84;5071917;28;20181;-55
2023/07/24 02:17:18;;;;;;;3.25;2.70;;;;;;;14.66;73.22;99107.13;5072278;28;20021;-57
2023/07/24 02:19:44;;;;;;;5.90;2.92;;;;;;;14.88;72.68;99127.22;5071983;28;20421;-58
2023/07/24 02:22:10;;;;;;;4.53;2.65;;;;;;;14.86;72.32;99091.53;5071799;28;20090;-57
2023/07/24 02:24:36;;;;;;;4.43;2.83;;;;;;;15.21;71.45;99123.66;5071372;28;20056;-59
2023/07/24 02:27:02;;;;;;;6.03;3.33;;;;;;;15.45;70.56;99130.84;5071675;28;20170;-57
2023/07/24 02:29:27;;;;;;;8.27;3.25;;;;;;;15.60;69.80;99128.25;5071164;28;20347;-54
2023/07/24 02:31:54;;;;;;;4.85;2.60;;;;;;;15.82;68.90;99138.47;5072217;28;20076;-53
2023/07/24 02:34:24;;;;;;;3.25;2.53;;;;;;;16.02;68.37;99142.44;5071575;28;20037;-56
2023/07/24 02:36:50;;;;;;;3.35;2.50;;;;;;;16.24;67.23;99136.44;5057224;28;20040;-58
2023/07/24 02:39:16;;;;;;;6.03;2.85;;;;;;;16.40;66.21;99117.44;5072082;28;20031;-56
2023/07/24 02:41:41;;;;;;;4.18;2.60;;;;;;;16.63;65.26;99116.56;5072580;28;20108;-58
2023/07/24 02:44:07;;;;;;;2.78;2.28;;;;;;;16.61;64.28;99088.91;5071788;28;20062;-57
2023/07/24 02:46:32;;;;;;;4.32;2.50;;;;;;;16.93;63.82;99116.69;5071070;28;20032;-57
2023/07/24 02:48:58;;;;;;;2.85;2.42;;;;;;;17.01;63.40;99118.53;5071718;28;20337;-56
2023/07/24 02:51:23;;;;;;;4.70;2.53;;;;;;;17.02;62.91;99122.91;5071799;28;20032;-56
2023/07/24 02:53:49;;;;;;;5.90;2.67;;;;;;;16.96;62.97;99119.03;5071491;28;20052;-53
2023/07/24 02:56:14;;;;;;;3.70;2.58;;;;;;;16.88;63.22;99110.97;5072698;28;20111;-57
2023/07/24 02:58:40;;;;;;;5.20;2.50;;;;;;;16.73;62.83;99092.88;5071787;28;20033;-55
2023/07/24 03:01:07;;;;;;;4.03;2.47;;;;;;;16.78;63.30;99119.34;5071539;28;20059;-57
2023/07/24 03:03:33;;;;;;;4.95;2.63;;;;;;;16.71;63.48;99118.38;5071825;28;20512;-58
2023/07/24 03:05:59;;;;;;;5.05;3.00;;;;;;;16.74;63.56;99121.56;5072210;28;20407;-57
2023/07/24 03:08:25;;;;;;;4.53;2.63;;;;;;;16.76;63.81;99116.00;5071571;28;20036;-56
2023/07/24 03:10:51;;;;;;;3.30;2.50;;;;;;;16.87;63.68;99112.00;5071177;28;20044;-58
2023/07/24 03:13:16;;;;;;;2.83;2.33;;;;;;;16.93;63.05;99109.41;5071884;28;20036;-59
2023/07/24 03:15:42;;;;;;;8.00;2.72;;;;;;;16.95;62.80;99109.25;5071967;28;20029;-58
2023/07/24 03:18:07;;;;;;;3.55;2.50;;;;;;;16.82;62.27;99093.63;5071423;28;20437;-59
2023/07/24 03:20:33;;;;;;;2.80;2.60;;;;;;;17.01;62.49;99115.81;5053914;28;20024;-56
2023/07/24 03:22:58;;;;;;;4.72;2.65;;;;;;;17.08;62.55;99130.28;5071378;28;20032;-58
2023/07/24 03:25:23;;;;;;;3.60;2.50;;;;;;;17.18;62.32;99121.91;5071502;28;20422;-57
2023/07/24 03:27:49;;;;;;;5.43;2.90;;;;;;;17.44;61.85;99131.44;5074857;28;20414;-61
2023/07/24 03:30:14;;;;;;;3.85;2.40;;;;;;;17.82;60.52;99128.63;5075341;28;20024;-56
2023/07/24 03:32:40;;;;;;;4.60;2.40;;;;;;;18.41;58.77;99124.13;5075079;28;20062;-58
2023/07/24 03:35:06;;;;;;;3.85;2.70;;;;;;;19.20;56.57;99132.38;5074108;28;20029;-54
2023/07/24 03:37:33;;;;;;;4.82;2.90;;;;;;;20.01;54.14;99130.97;5074846;28;20400;-56
2023/07/24 03:39:59;;;;;;;6.22;2.80;;;;;;;20.76;52.16;99123.84;5074341;28;20040;-56
2023/07/24 03:42:30;;;;;;;4.32;2.60;;;;;;;21.47;50.64;99124.28;5073892;28;20036;-54
2023/07/24 03:44:56;;;;;;;3.92;2.85;;;;;;;21.60;49.77;99121.50;5074980;28;20035;-55
2023/07/24 03:47:22;;;;;;;6.55;2.50;;;;;;;21.61;47.99;99122.34;5074566;28;20368;-59
2023/07/24 03:49:48;;;;;;;2.58;2.38;;;;;;;21.49;47.92;99119.44;5074283;28;20020;-59
2023/07/24 03:52:13;;;;;;;6.00;2.45;;;;;;;21.40;48.24;99116.09;5074140;28;20029;-59
2023/07/24 03:54:39;;;;;;;5.45;2.70;;;;;;;21.26;48.90;99109.84;5074741;28;20055;-57
2023/07/24 03:57:05;;;;;;;5.55;3.03;;;;;;;21.14;49.78;99117.81;5074857;28;20440;-57
2023/07/24 03:59:31;;;;;;;4.68;2.25;;;;;;;21.07;49.73;99120.53;5074705;28;20060;-56
2023/07/24 04:01:57;;;;;;;3.63;2.50;;;;;;;21.05;49.31;99132.66;5075085;28;20025;-52
2023/07/24 04:04:23;;;;;;;4.03;2.50;;;;;;;21.10;49.33;99129.31;5074890;28;20043;-55
2023/07/24 04:06:48;;;;;;;3.17;2.90;;;;;;;21.25;49.07;99119.06;5075138;28;20028;-54
2023/07/24 04:09:14;;;;;;;5.32;2.95;;;;;;;21.56;47.98;99133.03;5074733;28;20028;-57
2023/07/24 04:11:41;;;;;;;5.30;2.60;;;;;;;21.93;46.85;99126.03;5074584;28;20372;-57
2023/07/24 04:14:06;;;;;;;4.15;2.42;;;;;;;22.51;45.45;99126.19;5074517;28;20047;-53
2023/07/24 04:16:32;;;;;;;6.03;3.10;;;;;;;23.16;44.45;99121.53;5073855;28;20345;-57
2023/07/24 04:18:57;;;;;;;2.97;2.70;;;;;;;23.76;42.64;99123.66;5074249;28;20033;-55
2023/07/24 04:21:23;;;;;;;3.47;2.40;;;;;;;24.22;41.48;99126.91;5073400;28;20059;-61
2023/07/24 04:23:48;;;;;;;3.35;2.40;;;;;;;24.45;40.55;99127.22;5074460;28;20526;-56
2023/07/24 04:26:14;;;;;;;4.15;2.80;;;;;;;24.45;40.15;99103.44;5073950;28;20033;-56
2023/07/24 04:28:39;;;;;;;4.28;2.17;;;;;;;24.83;39.46;99133.41;5073615;28;20039;-57
2023/07/24 04:31:05;;;;;;;5.85;2.28;;;;;;;25.52;38.31;99124.66;5074448;28;20459;-60
2023/07/24 04:33:30;;;;;;;4.28;2.25;;;;;;;26.50;36.38;99104.72;5073479;28;20031;-57
2023/07/24 04:35:56;;;;;;;3.60;2.42;;;;;;;28.34;33.57;99132.72;5072533;28;20124;-58
2023/07/24 04:38:22;;;;;;;4.43;2.20;;;;;;;29.43;31.46;99120.75;5073713;28;20032;-60
2023/07/24 04:40:47;;;;;;;6.53;2.60;;;;;;;30.21;29.87;99105.38;5073467;28;20063;-58
2023/07/24 04:43:13;;;;;;;6.28;2.15;;;;;;;31.14;28.23;99115.69;5073241;28;20575;-57
2023/07/24 04:45:38;;;;;;;3.95;2.00;;;;;;;31.53;27.01;99105.16;5073735;28;20032;-58
2023/07/24 04:48:05;;;;;;;3.22;1.98;;;;;;;32.04;26.78;99112.44;5073493;28;20037;-57
2023/07/24 04:50:30;;;;;;;3.00;2.00;;;;;;;31.52;27.26;99111.81;5073842;28;20060;-55
2023/07/24 04:52:56;;;;;;;5.10;2.22;;;;;;;30.50;28.21;99107.66;5072829;28;20471;-56
2023/07/24 04:55:22;;;;;;;4.68;1.98;;;;;;;29.62;29.48;99106.50;5073564;28;20036;-54
2023/07/24 04:57:47;;;;;;;3.65;2.13;;;;;;;28.95;30.15;99112.41;5073352;28;20047;-56
2023/07/24 05:00:14;;;;;;;4.95;2.20;;;;;;;28.98;30.03;99117.38;5072194;28;20040;-60
2023/07/24 05:02:39;;;;;;;6.88;2.10;;;;;;;28.94;30.28;99094.22;5072883;28;20024;-56
2023/07/24 05:05:05;;;;;;;5.15;2.08;;;;;;;29.06;30.14;99102.28;5073577;28;20029;-57
2023/07/24 05:07:31;;;;;;;4.00;2.10;;;;;;;29.09;30.23;99115.53;5073406;28;20039;-55
2023/07/24 05:09:57;;;;;;;3.85;1.88;;;;;;;29.74;28.70;99109.88;5073003;28;20122;-58
2023/07/24 05:12:22;;;;;;;3.97;2.00;;;;;;;30.47;28.17;99107.34;5073685;28;20036;-58
2023/07/24 05:14:48;;;;;;;3.88;2.00;;;;;;;30.99;26.91;99102.72;5072524;28;20389;-59
2023/07/24 05:17:13;;;;;;;3.28;2.25;;;;;;;31.10;27.41;99111.00;5072967;28;20024;-58
2023/07/24 05:19:38;;;;;;;3.70;2.25;;;;;;;30.89;27.49;99106.31;5073117;28;20032;-57
2023/07/24 05:22:04;;;;;;;3.65;1.77;;;;;;;30.72;27.99;99101.06;5072753;28;20032;-56
2023/07/24 05:24:30;;;;;;;7.78;2.15;;;;;;;30.17;28.70;99101.53;5073038;28;20050;-57
2023/07/24 05:26:55;;;;;;;4.15;1.90;;;;;;;29.46;28.80;99105.59;5072965;28;20485;-58
2023/07/24 05:29:21;;;;;;;2.70;1.90;;;;;;;28.58;30.29;99108.47;5072675;28;20472;-57
2023/07/24 05:31:47;;;;;;;2.08;1.60;;;;;;;27.61;32.20;99118.06;5072336;28;20040;-57
2023/07/24 05:34:12;;;;;;;4.18;1.95;;;;;;;26.76;33.05;99110.66;5072516;28;20049;-57
2023/07/24 05:36:38;;;;;;;3.28;1.70;;;;;;;26.12;34.72;99114.41;5073010;28;20036;-57
2023/07/24 05:39:03;;;;;;;2.13;1.70;;;;;;;25.57;35.39;99107.53;5072679;28;20431;-58
2023/07/24 05:41:29;;;;;;;5.13;1.75;;;;;;;25.05;36.81;99109.06;5072891;28;20064;-60
2023/07/24 05:43:55;;;;;;;3.10;1.73;;;;;;;24.56;37.42;99099.06;5072326;28;20342;-57
2023/07/24 05:46:21;;;;;;;2.30;1.60;;;;;;;24.38;38.28;99108.19;5072155;28;20029;-57
2023/07/24 05:48:46;;;;;;;2.42;1.80;;;;;;;24.17;38.62;99093.09;5071499;28;20047;-58
2023/07/24 05:51:12;;;;;;;5.10;1.60;;;;;;;24.23;37.72;99101.22;5072147;28;20107;-57
2023/07/24 05:53:37;;;;;;;3.67;1.95;;;;;;;24.28;37.62;99097.78;5072316;28;20091;-56
2023/07/24 05:56:03;;;;;;;5.57;1.90;;;;;;;24.19;38.49;99100.00;5072561;28;20032;-57
2023/07/24 05:58:29;;;;;;;4.72;1.67;;;;;;;23.90;38.59;99113.41;5067799;28;20105;-59
2023/07/24 06:00:57;;;;;;;3.03;1.70;;;;;;;23.57;39.03;99100.94;5068419;28;20441;-53
2023/07/24 06:03:26;;;;;;;3.38;1.80;;;;;;;23.41;39.32;99116.03;5065105;28;20029;-61
2023/07/24 06:05:53;;;;;;;3.78;1.48;;;;;;;23.05;39.71;99112.97;5065100;28;20067;-61
2023/07/24 06:08:19;;;;;;;5.10;1.40;;;;;;;22.93;40.05;99106.59;5054065;28;20044;-60
2023/07/24 06:10:49;;;;;;;2.15;1.52;;;;;;;22.84;39.85;99089.66;5064819;28;20048;-62
2023/07/24 06:13:18;;;;;;;4.03;1.40;;;;;;;23.00;40.08;99115.56;5070545;28;20060;-61
2023/07/24 06:15:44;;;;;;;6.03;1.60;;;;;;;22.90;40.19;99115.19;5071728;28;20024;-65
2023/07/24 06:18:10;;;;;;;3.75;1.80;;;;;;;22.85;41.36;99115.03;5072126;28;20046;-59
2023/07/24 06:20:36;;;;;;;9.07;2.13;;;;;;;22.79;41.01;99114.88;5071268;28;20032;-61
2023/07/24 06:23:03;;;;;;;3.42;2.00;;;;;;;22.61;41.33;99087.50;5071379;28;20025;-56
2023/07/24 06:25:30;;;;;;;2.28;1.83;;;;;;;22.95;40.86;99123.59;5071327;28;20372;-57
2023/07/24 06:27:56;;;;;;;5.15;2.15;;;;;;;22.99;40.73;99104.84;5071607;28;20028;-62
2023/07/24 06:30:21;;;;;;;4.47;2.08;;;;;;;23.06;40.50;99120.09;5070061;28;20025;-60
2023/07/24 06:32:47;;;;;;;4.57;2.15;;;;;;;22.84;41.40;99114.22;5071414;28;20028;-62
2023/07/24 06:35:12;;;;;;;3.70;1.60;;;;;;;22.61;41.04;99128.44;5072295;28;20040;-53
2023/07/24 06:37:38;;;;;;;2.28;1.42;;;;;;;22.30;41.97;99127.34;5071879;28;20342;-56
2023/07/24 06:40:04;;;;;;;3.67;1.60;;;;;;;22.02;43.08;99123.06;5071159;28;20071;-57
2023/07/24 06:42:30;;;;;;;5.50;1.60;;;;;;;21.94;43.20;99121.41;5071717;28;20049;-53
2023/07/24 06:44:55;;;;;;;4.03;1.80;;;;;;;22.06;44.22;99121.59;5071697;28;20036;-55
2023/07/24 06:47:21;;;;;;;4.82;1.85;;;;;;;22.42;42.83;99125.56;5071761;28;20105;-57
2023/07/24 06:49:46;;;;;;;4.03;1.65;;;;;;;22.79;43.37;99131.25;5071511;28;20032;-56
2023/07/24 06:52:12;;;;;;;5.65;1.73;;;;;;;23.05;43.21;99128.53;5071355;28;20040;-55
2023/07/24 06:54:38;;;;;;;3.40;1.80;;;;;;;23.17;41.94;99132.19;5071539;28;20031;-54
2023/07/24 06:57:03;;;;;;;1.92;1.70;;;;;;;23.06;42.26;99128.31;5087590;28;20055;-54
2023/07/24 06:59:29;;;;;;;4.97;1.77;;;;;;;22.85;42.77;99128.69;5071190;28;20029;-56
2023/07/24 07:01:54;;;;;;;4.78;1.63;;;;;;;22.50;43.31;99117.19;5073573;28;20086;-56
2023/07/24 07:04:20;;;;;;;7.47;1.80;;;;;;;22.28;43.96;99118.53;5075859;28;20451;-59
2023/07/24 07:06:45;;;;;;;2.17;1.10;;;;;;;22.23;43.33;99119.19;5075471;28;20024;-56
2023/07/24 07:09:11;;;;;;;2.50;1.70;;;;;;;22.11;43.22;99121.75;5074871;28;20086;-55
2023/07/24 07:11:37;;;;;;;3.40;1.10;;;;;;;21.97;43.68;99120.97;5075062;28;20048;-59
2023/07/24 07:14:02;;;;;;;2.55;1.50;;;;;;;21.88;44.39;99108.66;5073257;28;20060;-59
2023/07/24 07:16:28;;;;;;;4.07;1.50;;;;;;;21.93;44.30;99120.56;5074673;28;20031;-55
2023/07/24 07:18:53;;;;;;;1.80;1.40;;;;;;;22.01;44.57;99121.41;5074096;28;20024;-60
2023/07/24 07:21:19;;;;;;;5.00;1.98;;;;;;;22.12;44.44;99109.81;5074284;28;20060;-55
2023/07/24 07:23:44;;;;;;;4.70;1.85;;;;;;;22.20;44.84;99101.38;5074622;28;20037;-60
2023/07/24 07:26:10;;;;;;;5.00;1.80;;;;;;;22.32;43.90;99115.16;5072000;28;20111;-57
2023/07/24 07:28:35;;;;;;;3.47;1.67;;;;;;;22.42;44.23;99109.22;5074264;28;20356;-58
2023/07/24 07:31:01;;;;;;;6.65;2.38;;;;;;;22.51;44.56;99113.41;5074014;28;20027;-63
2023/07/24 07:33:26;;;;;;;7.90;1.98;;;;;;;22.71;43.38;99111.56;5072229;28;20086;-59
2023/07/24 07:35:52;;;;;;;5.07;2.15;;;;;;;22.87;43.30;99110.19;5073793;28;20032;-55
2023/07/24 07:38:17;;;;;;;5.28;2.08;;;;;;;22.99;43.03;99108.41;5074262;28;20116;-60
2023/07/24 07:40:43;;;;;;;5.10;2.00;;;;;;;23.05;43.06;99118.44;5056702;28;20131;-60
2023/07/24 07:43:08;;;;;;;7.07;2.25;;;;;;;23.06;43.65;99106.47;5074104;28;20099;-58
2023/07/24 07:45:34;;;;;;;6.13;2.00;;;;;;;22.92;42.84;99103.00;5073333;28;20361;-55
2023/07/24 07:48:00;;;;;;;4.25;1.98;;;;;;;22.75;43.19;99102.75;5074801;28;20097;-61
2023/07/24 07:50:25;;;;;;;6.22;1.83;;;;;;;22.59;44.10;99106.84;5073559;28;20389;-64
2023/07/24 07:52:52;;;;;;;7.10;2.30;;;;;;;22.45;44.50;99118.84;5073562;28;20132;-61
2023/07/24 07:55:20;;;;;;;4.72;2.15;;;;;;;22.27;45.16;99111.41;5074120;28;20032;-59
2023/07/24 07:57:46;;;;;;;3.03;2.00;;;;;;;22.05;45.79;99109.81;5074225;28;20095;-56
2023/07/24 08:00:12;;;;;;;4.63;1.85;;;;;;;21.98;46.50;99109.03;5073182;28;20067;-55
2023/07/24 08:02:39;;;;;;;5.65;2.13;;;;;;;21.94;46.32;99099.63;5073906;28;20036;-55
2023/07/24 08:05:10;;;;;;;3.65;2.70;;;;;;;21.93;46.89;99098.78;5073058;28;20029;-53
2023/07/24 08:07:35;;;;;;;7.05;2.60;;;;;;;21.88;47.11;99095.03;5073688;28;20341;-52
2023/07/24 08:10:02;;;;;;;2.67;2.30;;;;;;;21.79;47.53;99089.00;5074316;28;20065;-54
2023/07/24 08:12:32;;;;;;;3.78;2.53;;;;;;;21.67;47.14;99102.44;5073656;28;20540;-53
2023/07/24 08:14:58;;;;;;;4.53;2.60;;;;;;;21.44;48.95;99097.44;5089511;28;20151;-54
2023/07/24 08:17:23;;;;;;;7.53;2.95;;;;;;;21.29;49.08;99103.13;5073160;28;20039;-54
2023/07/24 08:19:49;;;;;;;7.07;2.60;;;;;;;21.14;48.14;99104.22;5073430;28;20115;-56
2023/07/24 08:22:14;;;;;;;4.25;2.20;;;;;;;20.99;49.78;99104.44;5073977;28;20032;-51
2023/07/24 08:24:40;;;;;;;5.80;2.30;;;;;;;20.84;50.46;99093.72;5073441;28;20786;-55
2023/07/24 08:27:06;;;;;;;5.90;2.83;;;;;;;20.93;50.60;99102.53;5073196;28;20024;-58
2023/07/24 08:29:31;;;;;;;5.18;2.47;;;;;;;21.11;50.43;99095.63;5073847;28;20464;-53
2023/07/24 08:31:57;;;;;;;5.38;2.92;;;;;;;21.37;50.96;99100.19;5073635;28;20028;-52
2023/07/24 08:34:22;;;;;;;2.45;2.05;;;;;;;21.54;50.05;99097.84;5073030;28;20140;-55
2023/07/24 08:36:48;;;;;;;5.97;2.53;;;;;;;21.60;49.74;99096.16;5073279;28;20044;-56
2023/07/24 08:39:13;;;;;;;5.50;2.65;;;;;;;21.60;49.03;99091.53;5074290;28;20472;-54
2023/07/24 08:41:39;;;;;;;8.13;2.67;;;;;;;21.59;48.82;99089.88;5073413;28;20123;-53
2023/07/24 08:44:08;;;;;;;6.65;2.88;;;;;;;21.59;48.88;99098.03;5073300;28;20291;-55
2023/07/24 08:46:40;;;;;;;5.45;2.90;;;;;;;21.54;48.68;99095.13;5073021;28;20115;-53
2023/07/24 08:49:11;;;;;;;8.30;3.58;;;;;;;21.34;49.84;99092.44;5068354;28;20024;-57
2023/07/24 08:51:37;;;;;;;5.50;3.40;;;;;;;21.29;50.72;99105.84;5069637;28;20321;-57
2023/07/24 08:54:04;;;;;;;4.65;3.03;;;;;;;21.28;49.13;99088.69;5071196;28;20138;-60
2023/07/24 08:56:30;;;;;;;10.40;3.92;;;;;;;21.34;49.04;99086.97;5070979;28;20483;-55
2023/07/24 08:58:56;;;;;;;8.43;3.50;;;;;;;21.44;49.51;99092.00;5071392;28;20074;-53
2023/07/24 09:01:22;;;;;;;8.10;3.30;;;;;;;21.50;49.26;99083.00;5071324;28;20036;-54
2023/07/24 09:03:47;;;;;;;10.63;3.17;;;;;;;21.56;48.86;99073.97;5070840;28;20043;-54
2023/07/24 09:06:13;;;;;;;7.55;3.30;;;;;;;21.77;49.37;99086.47;5071447;28;20429;-53
2023/07/24 09:08:41;;;;;;;6.00;3.78;;;;;;;21.66;48.77;99051.75;5071827;28;20414;-55
2023/07/24 09:11:08;;;;;;;5.50;3.72;;;;;;;21.84;49.19;99089.19;5070358;28;20064;-56
2023/07/24 09:13:41;;;;;;;8.13;3.47;;;;;;;21.82;48.90;99080.38;5070167;28;20482;-55
2023/07/24 09:16:06;;;;;;;7.47;3.90;;;;;;;21.69;49.90;99078.56;5066135;28;20274;-59
2023/07/24 09:18:42;;;;;;;6.10;3.70;;;;;;;21.83;50.08;99073.88;5071440;28;20444;-60
2023/07/24 09:21:09;;;;;;;7.68;4.00;;;;;;;21.74;50.23;99069.75;5068701;28;20036;-55
2023/07/24 09:23:34;;;;;;;5.43;3.40;;;;;;;21.78;50.66;99062.81;5071676;28;20052;-57
2023/07/24 09:26:05;;;;;;;6.03;3.63;;;;;;;21.82;50.15;99064.03;5071717;28;20501;-58
2023/07/24 09:28:30;;;;;;;7.57;3.78;;;;;;;21.75;50.00;99050.44;5069805;28;20032;-57
2023/07/24 09:30:58;;;;;;;5.20;3.28;;;;;;;21.71;50.10;99043.75;5070143;28;20031;-57
2023/07/24 09:33:43;;;;;;;8.48;3.30;;;;;;;21.80;50.54;99049.81;5071473;28;20039;-57
2023/07/24 09:36:10;;;;;;;7.00;3.13;;;;;;;21.64;51.63;99054.66;5071230;28;20033;-53
2023/07/24 09:38:37;;;;;;;7.78;3.00;;;;;;;21.57;51.36;99050.25;5071295;28;20056;-54
2023/07/24 09:41:03;;;;;;;5.03;3.17;;;;;;;21.49;51.34;99045.91;5071603;28;20048;-52
2023/07/24 09:43:29;;;;;;;3.33;2.85;;;;;;;21.40;51.38;99053.47;5071408;28;20381;-55
2023/07/24 09:45:56;;;;;;;6.97;3.67;;;;;;;21.27;51.92;99046.19;5067620;28;20433;-57
2023/07/24 09:48:26;;;;;;;8.48;3.50;;;;;;;21.22;52.85;99030.47;5071332;28;20028;-54
2023/07/24 09:50:57;;;;;;;7.43;3.40;;;;;;;21.15;53.62;99031.53;5070978;28;20085;-55
2023/07/24 09:54:02;;;;;;;5.60;3.53;;;;;;;21.21;53.41;99020.66;5071196;28;20448;-53
2023/07/24 09:56:27;;;;;;;6.28;3.47;;;;;;;21.05;53.97;99018.38;5059880;28;20060;-54
2023/07/24 09:58:55;;;;;;;5.57;3.08;;;;;;;21.02;54.47;99019.66;5071170;28;20120;-51
2023/07/24 10:01:20;;;;;;;7.35;3.85;;;;;;;21.00;54.51;99019.03;5067531;28;20029;-49
2023/07/24 10:03:50;;;;;;;4.30;3.00;;;;;;;20.93;53.79;99018.19;5070373;28;20040;-49
2023/07/24 10:06:16;;;;;;;4.45;2.22;;;;;;;20.75;52.23;99016.09;5068991;28;20060;-49
2023/07/24 10:08:42;;;;;;;8.35;3.05;;;;;;;20.56;52.84;99006.91;5071763;28;20034;-54
2023/07/24 10:11:13;;;;;;;5.13;2.30;;;;;;;20.32;53.49;98995.59;5071755;28;20044;-54
2023/07/24 10:13:40;;;;;;;4.85;2.78;;;;;;;19.99;54.93;98964.63;5055912;28;20033;-50
2023/07/24 10:16:06;;;;;;;4.00;2.75;;;;;;;19.88;55.51;98965.19;5069329;28;20453;-60
2023/07/24 10:18:35;;;;;;;3.28;2.40;;;;;;;19.89;55.54;98992.16;5072153;28;20039;-57
2023/07/24 10:21:05;;;;;;;2.95;2.60;;;;;;;19.78;56.18;98995.47;5072304;28;20039;-52
2023/07/24 10:23:34;;;;;;;4.05;2.45;;;;;;;19.54;56.83;98995.00;5071975;28;20086;-53
2023/07/24 10:26:04;;;;;;;5.82;2.42;;;;;;;19.28;57.12;98988.38;5070823;28;20123;-50
2023/07/24 10:28:38;;;;;;;5.65;2.88;;;;;;;19.11;58.25;98987.06;5072143;28;20463;-53
2023/07/24 10:31:08;;;;;;;4.88;2.70;;;;;;;19.01;59.16;98985.53;5069817;28;20051;-56
2023/07/24 10:33:38;;;;;;;7.28;2.78;;;;;;;18.96;58.87;98982.53;5070020;28;20040;-55
2023/07/24 10:36:10;;;;;;;5.55;2.75;;;;;;;19.11;58.11;98993.31;5071888;28;20037;-54
2023/07/24 10:38:41;;;;;;;4.10;2.83;;;;;;;19.14;58.36;98983.94;5073550;28;20460;-56
2023/07/24 10:41:08;;;;;;;6.28;2.97;;;;;;;19.23;58.29;98988.16;5070016;28;20028;-57
2023/07/24 10:43:45;;;;;;;3.35;2.40;;;;;;;19.40;57.54;98980.50;5074741;28;20064;-56
2023/07/24 10:46:12;;;;;;;4.10;2.67;;;;;;;19.23;58.26;98982.72;5075542;28;20120;-53
2023/07/24 10:48:41;;;;;;;4.38;2.90;;;;;;;19.10;58.35;98977.25;5075345;28;20040;-50
2023/07/24 10:51:09;;;;;;;7.15;3.05;;;;;;;19.01;58.56;98982.00;5075758;28;20149;-57
2023/07/24 10:53:37;;;;;;;7.18;3.03;;;;;;;18.90;59.79;98973.31;5075962;28;20036;-58
2023/07/24 10:56:04;;;;;;;6.10;3.20;;;;;;;18.90;59.79;98965.19;5076461;28;20467;-54
2023/07/24 10:58:29;;;;;;;4.72;3.30;;;;;;;18.82;59.39;98949.09;5075388;28;20056;-56
2023/07/24 11:00:56;;;;;;;6.88;3.53;;;;;;;18.85;60.66;98977.69;5075135;28;20087;-49
2023/07/24 11:03:22;;;;;;;4.88;3.15;;;;;;;18.72;60.37;98965.72;5075951;28;20028;-50
2023/07/24 11:05:47;;;;;;;8.80;3.80;;;;;;;18.65;60.96;98968.38;5075704;28;20020;-56
2023/07/24 11:08:15;;;;;;;4.20;3.42;;;;;;;18.57;61.14;98965.00;5074568;28;20041;-57
2023/07/24 11:10:46;;;;;;;6.20;3.67;;;;;;;18.47;61.54;98962.63;5075092;28;20488;-55
2023/07/24 11:13:12;;;;;;;5.82;3.65;;;;;;;18.26;62.17;98967.03;5075765;28;20043;-49
2023/07/24 11:15:37;;;;;;;8.10;3.78;;;;;;;18.08;63.58;98952.09;5075143;28;20040;-58
2023/07/24 11:18:04;;;;;;;6.22;3.50;;;;;;;17.99;63.61;98944.25;5074088;28;20036;-53
2023/07/24 11:20:29;;;;;;;5.05;3.80;;;;;;;17.89;64.39;98956.25;5074983;28;20090;-54
2023/07/24 11:22:57;;;;;;;4.50;3.42;;;;;;;17.78;64.94;98940.50;5075637;28;20032;-53
2023/07/24 11:25:24;;;;;;;8.50;4.13;;;;;;;17.85;65.66;98952.25;5075136;28;20035;-53
2023/07/24 11:27:49;;;;;;;5.13;4.22;;;;;;;17.85;65.23;98954.97;5074845;28;20025;-54
2023/07/24 11:30:20;;;;;;;5.55;3.75;;;;;;;17.60;66.17;98906.63;5074926;28;20033;-55